sensor_id;sensor_type;location;lat;lon;timestamp;P1;durP1;ratioP1;P2;durP2;ratioP2
59193;SDS011;44967;48.598;15.650;2024-01-11T00:00:16;25.92;;;12.38;;
59193;SDS011;44967;48.598;15.650;2024-01-11T00:02:42;25.95;;;12.35;;
59193;SDS011;44967;48.598;15.650;2024-01-11T00:05:09;33.30;;;12.98;;
59193;SDS011;44967;48.598;15.650;2024-01-11T00:07:34;29.55;;;13.38;;
59193;SDS011;44967;48.598;15.650;2024-01-11T00:10:01;24.33;;;12.60;;
59193;SDS011;44967;48.598;15.650;2024-01-11T00:12:27;30.42;;;12.98;;
59193;SDS011;44967;48.598;15.650;2024-01-11T00:14:53;28.42;;;12.10;;
59193;SDS011;44967;48.598;15.650;2024-01-11T00:17:19;24.90;;;12.27;;
59193;SDS011;44967;48.598;15.650;2024-01-11T00:19:45;30.75;;;13.48;;
59193;SDS011;44967;48.598;15.650;2024-01-11T00:22:11;23.45;;;12.43;;
59193;SDS011;44967;48.598;15.650;2024-01-11T00:24:36;27.40;;;12.45;;
59193;SDS011;44967;48.598;15.650;2024-01-11T00:27:02;24.90;;;11.90;;
59193;SDS011;44967;48.598;15.650;2024-01-11T00:29:28;26.25;;;12.98;;
59193;SDS011;44967;48.598;15.650;2024-01-11T00:31:54;36.65;;;14.20;;
59193;SDS011;44967;48.598;15.650;2024-01-11T00:34:21;26.88;;;12.80;;
59193;SDS011;44967;48.598;15.650;2024-01-11T00:36:47;29.90;;;13.18;;
59193;SDS011;44967;48.598;15.650;2024-01-11T00:39:13;29.25;;;13.63;;
59193;SDS011;44967;48.598;15.650;2024-01-11T00:41:39;31.60;;;13.40;;
59193;SDS011;44967;48.598;15.650;2024-01-11T00:44:04;32.72;;;14.27;;
59193;SDS011;44967;48.598;15.650;2024-01-11T00:46:30;29.63;;;12.23;;
59193;SDS011;44967;48.598;15.650;2024-01-11T00:48:56;25.80;;;12.35;;
59193;SDS011;44967;48.598;15.650;2024-01-11T00:51:22;27.25;;;12.38;;
59193;SDS011;44967;48.598;15.650;2024-01-11T00:53:47;25.25;;;12.38;;
59193;SDS011;44967;48.598;15.650;2024-01-11T00:56:16;27.27;;;11.82;;
59193;SDS011;44967;48.598;15.650;2024-01-11T00:58:45;24.38;;;12.55;;
59193;SDS011;44967;48.598;15.650;2024-01-11T01:01:11;26.58;;;12.80;;
59193;SDS011;44967;48.598;15.650;2024-01-11T01:03:38;29.77;;;13.43;;
59193;SDS011;44967;48.598;15.650;2024-01-11T01:06:04;25.77;;;11.45;;
59193;SDS011;44967;48.598;15.650;2024-01-11T01:08:30;24.58;;;12.07;;
59193;SDS011;44967;48.598;15.650;2024-01-11T01:10:56;24.50;;;11.23;;
59193;SDS011;44967;48.598;15.650;2024-01-11T01:13:22;27.00;;;12.80;;
59193;SDS011;44967;48.598;15.650;2024-01-11T01:15:48;30.40;;;12.88;;
59193;SDS011;44967;48.598;15.650;2024-01-11T01:18:13;25.55;;;12.27;;
59193;SDS011;44967;48.598;15.650;2024-01-11T01:20:39;22.15;;;11.43;;
59193;SDS011;44967;48.598;15.650;2024-01-11T01:23:05;24.80;;;12.15;;
59193;SDS011;44967;48.598;15.650;2024-01-11T01:25:31;28.88;;;13.35;;
59193;SDS011;44967;48.598;15.650;2024-01-11T01:28:00;27.60;;;13.68;;
59193;SDS011;44967;48.598;15.650;2024-01-11T01:30:26;27.33;;;13.25;;
59193;SDS011;44967;48.598;15.650;2024-01-11T01:32:53;26.02;;;11.60;;
59193;SDS011;44967;48.598;15.650;2024-01-11T01:35:19;26.65;;;12.70;;
59193;SDS011;44967;48.598;15.650;2024-01-11T01:37:45;23.98;;;11.48;;
59193;SDS011;44967;48.598;15.650;2024-01-11T01:40:12;23.73;;;12.13;;
59193;SDS011;44967;48.598;15.650;2024-01-11T01:42:44;29.02;;;12.32;;
59193;SDS011;44967;48.598;15.650;2024-01-11T01:45:11;28.02;;;12.48;;
59193;SDS011;44967;48.598;15.650;2024-01-11T01:47:37;26.25;;;12.40;;
59193;SDS011;44967;48.598;15.650;2024-01-11T01:50:07;29.15;;;11.98;;
59193;SDS011;44967;48.598;15.650;2024-01-11T01:52:35;26.33;;;11.68;;
59193;SDS011;44967;48.598;15.650;2024-01-11T01:55:03;22.33;;;10.45;;
59193;SDS011;44967;48.598;15.650;2024-01-11T01:57:31;23.63;;;12.18;;
59193;SDS011;44967;48.598;15.650;2024-01-11T02:00:00;26.67;;;12.35;;
59193;SDS011;44967;48.598;15.650;2024-01-11T02:02:27;20.58;;;10.82;;
59193;SDS011;44967;48.598;15.650;2024-01-11T02:04:56;26.48;;;12.10;;
59193;SDS011;44967;48.598;15.650;2024-01-11T02:07:22;27.27;;;12.75;;
59193;SDS011;44967;48.598;15.650;2024-01-11T02:09:49;23.67;;;12.57;;
59193;SDS011;44967;48.598;15.650;2024-01-11T02:12:15;33.53;;;13.18;;
59193;SDS011;44967;48.598;15.650;2024-01-11T02:14:42;31.38;;;13.32;;
59193;SDS011;44967;48.598;15.650;2024-01-11T02:17:08;25.83;;;12.18;;
59193;SDS011;44967;48.598;15.650;2024-01-11T02:19:33;24.25;;;11.02;;
59193;SDS011;44967;48.598;15.650;2024-01-11T02:22:00;26.80;;;12.50;;
59193;SDS011;44967;48.598;15.650;2024-01-11T02:24:30;30.00;;;13.18;;
59193;SDS011;44967;48.598;15.650;2024-01-11T02:26:57;29.75;;;12.50;;
59193;SDS011;44967;48.598;15.650;2024-01-11T02:29:25;28.75;;;13.18;;
59193;SDS011;44967;48.598;15.650;2024-01-11T02:31:51;25.80;;;10.63;;
59193;SDS011;44967;48.598;15.650;2024-01-11T02:34:17;21.27;;;11.07;;
59193;SDS011;44967;48.598;15.650;2024-01-11T02:36:44;23.10;;;11.82;;
59193;SDS011;44967;48.598;15.650;2024-01-11T02:39:10;32.25;;;13.70;;
59193;SDS011;44967;48.598;15.650;2024-01-11T02:41:37;25.33;;;12.48;;
59193;SDS011;44967;48.598;15.650;2024-01-11T02:44:03;31.55;;;14.65;;
59193;SDS011;44967;48.598;15.650;2024-01-11T02:46:30;33.08;;;14.40;;
59193;SDS011;44967;48.598;15.650;2024-01-11T02:48:56;26.27;;;13.43;;
59193;SDS011;44967;48.598;15.650;2024-01-11T02:51:21;28.20;;;12.63;;
59193;SDS011;44967;48.598;15.650;2024-01-11T02:53:47;24.23;;;12.63;;
59193;SDS011;44967;48.598;15.650;2024-01-11T02:56:12;27.15;;;12.32;;
59193;SDS011;44967;48.598;15.650;2024-01-11T02:58:38;31.13;;;11.57;;
59193;SDS011;44967;48.598;15.650;2024-01-11T03:01:04;26.77;;;12.13;;
59193;SDS011;44967;48.598;15.650;2024-01-11T03:03:30;23.80;;;11.68;;
59193;SDS011;44967;48.598;15.650;2024-01-11T03:05:56;26.98;;;11.63;;
59193;SDS011;44967;48.598;15.650;2024-01-11T03:08:22;24.73;;;12.88;;
59193;SDS011;44967;48.598;15.650;2024-01-11T03:10:48;25.80;;;10.98;;
59193;SDS011;44967;48.598;15.650;2024-01-11T03:13:13;26.30;;;12.63;;
59193;SDS011;44967;48.598;15.650;2024-01-11T03:15:39;22.60;;;13.23;;
59193;SDS011;44967;48.598;15.650;2024-01-11T03:18:05;30.85;;;12.82;;
59193;SDS011;44967;48.598;15.650;2024-01-11T03:20:30;27.10;;;12.43;;
59193;SDS011;44967;48.598;15.650;2024-01-11T03:22:56;24.17;;;11.65;;
59193;SDS011;44967;48.598;15.650;2024-01-11T03:25:22;22.67;;;11.38;;
59193;SDS011;44967;48.598;15.650;2024-01-11T03:27:47;30.92;;;14.02;;
59193;SDS011;44967;48.598;15.650;2024-01-11T03:30:13;36.72;;;15.18;;
59193;SDS011;44967;48.598;15.650;2024-01-11T03:32:39;28.35;;;13.18;;
59193;SDS011;44967;48.598;15.650;2024-01-11T03:35:08;29.00;;;14.18;;
59193;SDS011;44967;48.598;15.650;2024-01-11T03:37:35;28.50;;;14.38;;
59193;SDS011;44967;48.598;15.650;2024-01-11T03:40:02;35.03;;;13.88;;
59193;SDS011;44967;48.598;15.650;2024-01-11T03:42:29;25.45;;;13.45;;
59193;SDS011;44967;48.598;15.650;2024-01-11T03:44:54;29.65;;;13.68;;
59193;SDS011;44967;48.598;15.650;2024-01-11T03:47:21;34.08;;;14.50;;
59193;SDS011;44967;48.598;15.650;2024-01-11T03:49:47;24.13;;;12.40;;
59193;SDS011;44967;48.598;15.650;2024-01-11T03:52:12;28.50;;;13.15;;
59193;SDS011;44967;48.598;15.650;2024-01-11T03:54:38;27.85;;;13.40;;
59193;SDS011;44967;48.598;15.650;2024-01-11T03:57:04;33.42;;;15.30;;
59193;SDS011;44967;48.598;15.650;2024-01-11T03:59:30;29.55;;;13.63;;
59193;SDS011;44967;48.598;15.650;2024-01-11T04:01:57;32.10;;;15.10;;
59193;SDS011;44967;48.598;15.650;2024-01-11T04:04:24;32.35;;;13.70;;
59193;SDS011;44967;48.598;15.650;2024-01-11T04:06:51;35.08;;;14.57;;
59193;SDS011;44967;48.598;15.650;2024-01-11T04:09:20;26.42;;;13.85;;
59193;SDS011;44967;48.598;15.650;2024-01-11T04:11:46;32.60;;;13.85;;
59193;SDS011;44967;48.598;15.650;2024-01-11T04:14:12;29.00;;;14.48;;
59193;SDS011;44967;48.598;15.650;2024-01-11T04:16:41;33.88;;;15.38;;
59193;SDS011;44967;48.598;15.650;2024-01-11T04:19:07;31.13;;;14.05;;
59193;SDS011;44967;48.598;15.650;2024-01-11T04:21:34;28.67;;;12.57;;
59193;SDS011;44967;48.598;15.650;2024-01-11T04:24:00;29.15;;;13.82;;
59193;SDS011;44967;48.598;15.650;2024-01-11T04:26:26;32.75;;;14.55;;
59193;SDS011;44967;48.598;15.650;2024-01-11T04:28:52;32.55;;;13.68;;
59193;SDS011;44967;48.598;15.650;2024-01-11T04:31:18;26.65;;;13.60;;
59193;SDS011;44967;48.598;15.650;2024-01-11T04:33:45;32.00;;;13.18;;
59193;SDS011;44967;48.598;15.650;2024-01-11T04:36:12;32.88;;;13.57;;
59193;SDS011;44967;48.598;15.650;2024-01-11T04:38:38;36.95;;;15.35;;
59193;SDS011;44967;48.598;15.650;2024-01-11T04:41:11;30.20;;;14.27;;
59193;SDS011;44967;48.598;15.650;2024-01-11T04:43:38;32.60;;;13.88;;
59193;SDS011;44967;48.598;15.650;2024-01-11T04:46:17;27.52;;;13.70;;
59193;SDS011;44967;48.598;15.650;2024-01-11T04:48:45;30.52;;;13.35;;
59193;SDS011;44967;48.598;15.650;2024-01-11T04:51:14;26.80;;;14.30;;
59193;SDS011;44967;48.598;15.650;2024-01-11T04:53:41;26.20;;;13.13;;
59193;SDS011;44967;48.598;15.650;2024-01-11T04:56:09;26.08;;;11.68;;
59193;SDS011;44967;48.598;15.650;2024-01-11T04:58:38;27.65;;;13.70;;
59193;SDS011;44967;48.598;15.650;2024-01-11T05:01:06;25.15;;;14.25;;
59193;SDS011;44967;48.598;15.650;2024-01-11T05:03:32;33.97;;;13.95;;
59193;SDS011;44967;48.598;15.650;2024-01-11T05:05:58;38.55;;;13.85;;
59193;SDS011;44967;48.598;15.650;2024-01-11T05:08:25;27.38;;;12.85;;
59193;SDS011;44967;48.598;15.650;2024-01-11T05:10:51;32.08;;;13.13;;
59193;SDS011;44967;48.598;15.650;2024-01-11T05:13:18;27.00;;;12.93;;
59193;SDS011;44967;48.598;15.650;2024-01-11T05:15:44;31.33;;;13.10;;
59193;SDS011;44967;48.598;15.650;2024-01-11T05:18:10;29.15;;;12.98;;
59193;SDS011;44967;48.598;15.650;2024-01-11T05:20:36;27.85;;;13.63;;
59193;SDS011;44967;48.598;15.650;2024-01-11T05:23:02;26.48;;;12.60;;
59193;SDS011;44967;48.598;15.650;2024-01-11T05:25:29;26.65;;;11.82;;
59193;SDS011;44967;48.598;15.650;2024-01-11T05:27:59;32.10;;;14.02;;
59193;SDS011;44967;48.598;15.650;2024-01-11T05:30:25;33.85;;;15.13;;
59193;SDS011;44967;48.598;15.650;2024-01-11T05:32:52;38.75;;;14.48;;
59193;SDS011;44967;48.598;15.650;2024-01-11T05:35:18;26.88;;;13.18;;
59193;SDS011;44967;48.598;15.650;2024-01-11T05:37:44;26.83;;;13.57;;
59193;SDS011;44967;48.598;15.650;2024-01-11T05:40:09;27.80;;;13.90;;
59193;SDS011;44967;48.598;15.650;2024-01-11T05:42:35;26.05;;;12.18;;
59193;SDS011;44967;48.598;15.650;2024-01-11T05:45:03;26.27;;;12.65;;
59193;SDS011;44967;48.598;15.650;2024-01-11T05:47:30;31.33;;;13.50;;
59193;SDS011;44967;48.598;15.650;2024-01-11T05:49:56;31.15;;;13.77;;
59193;SDS011;44967;48.598;15.650;2024-01-11T05:52:21;25.88;;;12.07;;
59193;SDS011;44967;48.598;15.650;2024-01-11T05:54:47;26.58;;;12.90;;
59193;SDS011;44967;48.598;15.650;2024-01-11T05:57:13;29.08;;;12.15;;
59193;SDS011;44967;48.598;15.650;2024-01-11T05:59:45;28.83;;;12.82;;
59193;SDS011;44967;48.598;15.650;2024-01-11T06:02:11;29.42;;;13.95;;
59193;SDS011;44967;48.598;15.650;2024-01-11T06:04:39;28.30;;;13.27;;
59193;SDS011;44967;48.598;15.650;2024-01-11T06:07:06;25.27;;;13.15;;
59193;SDS011;44967;48.598;15.650;2024-01-11T06:09:32;29.23;;;13.50;;
59193;SDS011;44967;48.598;15.650;2024-01-11T06:11:57;37.05;;;18.45;;
59193;SDS011;44967;48.598;15.650;2024-01-11T06:14:23;46.70;;;21.58;;
59193;SDS011;44967;48.598;15.650;2024-01-11T06:16:48;31.40;;;15.25;;
59193;SDS011;44967;48.598;15.650;2024-01-11T06:19:14;40.03;;;17.33;;
59193;SDS011;44967;48.598;15.650;2024-01-11T06:21:40;39.05;;;16.95;;
59193;SDS011;44967;48.598;15.650;2024-01-11T06:24:06;39.67;;;16.95;;
59193;SDS011;44967;48.598;15.650;2024-01-11T06:26:32;29.88;;;14.02;;
59193;SDS011;44967;48.598;15.650;2024-01-11T06:28:57;33.83;;;16.85;;
59193;SDS011;44967;48.598;15.650;2024-01-11T06:31:24;40.42;;;17.88;;
59193;SDS011;44967;48.598;15.650;2024-01-11T06:33:49;31.92;;;14.00;;
59193;SDS011;44967;48.598;15.650;2024-01-11T06:36:15;30.30;;;13.57;;
59193;SDS011;44967;48.598;15.650;2024-01-11T06:38:41;30.77;;;13.30;;
59193;SDS011;44967;48.598;15.650;2024-01-11T06:41:07;32.05;;;14.70;;
59193;SDS011;44967;48.598;15.650;2024-01-11T06:43:32;29.40;;;14.18;;
59193;SDS011;44967;48.598;15.650;2024-01-11T06:46:02;31.55;;;14.75;;
59193;SDS011;44967;48.598;15.650;2024-01-11T06:48:31;32.00;;;13.95;;
59193;SDS011;44967;48.598;15.650;2024-01-11T06:50:58;33.58;;;16.00;;
59193;SDS011;44967;48.598;15.650;2024-01-11T06:53:23;32.40;;;14.18;;
59193;SDS011;44967;48.598;15.650;2024-01-11T06:55:49;38.20;;;15.23;;
59193;SDS011;44967;48.598;15.650;2024-01-11T06:58:17;37.50;;;15.88;;
59193;SDS011;44967;48.598;15.650;2024-01-11T07:00:45;36.58;;;17.10;;
59193;SDS011;44967;48.598;15.650;2024-01-11T07:03:11;36.80;;;16.58;;
59193;SDS011;44967;48.598;15.650;2024-01-11T07:05:37;37.75;;;17.17;;
59193;SDS011;44967;48.598;15.650;2024-01-11T07:08:03;34.17;;;17.48;;
59193;SDS011;44967;48.598;15.650;2024-01-11T07:10:29;35.90;;;15.13;;
59193;SDS011;44967;48.598;15.650;2024-01-11T07:12:55;37.63;;;16.40;;
59193;SDS011;44967;48.598;15.650;2024-01-11T07:15:21;38.58;;;15.48;;
59193;SDS011;44967;48.598;15.650;2024-01-11T07:17:47;37.88;;;16.38;;
59193;SDS011;44967;48.598;15.650;2024-01-11T07:20:13;36.38;;;14.50;;
59193;SDS011;44967;48.598;15.650;2024-01-11T07:22:40;32.38;;;16.02;;
59193;SDS011;44967;48.598;15.650;2024-01-11T07:25:06;28.15;;;15.07;;
59193;SDS011;44967;48.598;15.650;2024-01-11T07:27:32;32.00;;;14.98;;
59193;SDS011;44967;48.598;15.650;2024-01-11T07:29:57;29.73;;;14.98;;
59193;SDS011;44967;48.598;15.650;2024-01-11T07:32:23;38.13;;;14.63;;
59193;SDS011;44967;48.598;15.650;2024-01-11T07:34:49;33.92;;;15.85;;
59193;SDS011;44967;48.598;15.650;2024-01-11T07:37:15;33.75;;;16.45;;
59193;SDS011;44967;48.598;15.650;2024-01-11T07:39:41;37.17;;;18.30;;
59193;SDS011;44967;48.598;15.650;2024-01-11T07:42:07;42.60;;;20.20;;
59193;SDS011;44967;48.598;15.650;2024-01-11T07:44:33;51.85;;;21.98;;
59193;SDS011;44967;48.598;15.650;2024-01-11T07:46:59;39.20;;;18.55;;
59193;SDS011;44967;48.598;15.650;2024-01-11T07:49:25;41.08;;;18.73;;
59193;SDS011;44967;48.598;15.650;2024-01-11T07:51:51;42.33;;;19.15;;
59193;SDS011;44967;48.598;15.650;2024-01-11T07:54:17;39.38;;;16.10;;
59193;SDS011;44967;48.598;15.650;2024-01-11T07:56:43;38.25;;;18.05;;
59193;SDS011;44967;48.598;15.650;2024-01-11T07:59:08;39.38;;;17.75;;
59193;SDS011;44967;48.598;15.650;2024-01-11T08:01:38;31.55;;;15.30;;
59193;SDS011;44967;48.598;15.650;2024-01-11T08:04:04;32.63;;;16.42;;
59193;SDS011;44967;48.598;15.650;2024-01-11T08:06:29;39.85;;;18.23;;
59193;SDS011;44967;48.598;15.650;2024-01-11T08:08:55;33.40;;;16.00;;
59193;SDS011;44967;48.598;15.650;2024-01-11T08:11:21;38.22;;;17.25;;
59193;SDS011;44967;48.598;15.650;2024-01-11T08:13:47;37.80;;;18.20;;
59193;SDS011;44967;48.598;15.650;2024-01-11T08:16:18;43.38;;;18.20;;
59193;SDS011;44967;48.598;15.650;2024-01-11T08:18:44;47.33;;;18.48;;
59193;SDS011;44967;48.598;15.650;2024-01-11T08:21:11;43.58;;;22.00;;
59193;SDS011;44967;48.598;15.650;2024-01-11T08:23:39;51.45;;;20.83;;
59193;SDS011;44967;48.598;15.650;2024-01-11T08:26:10;55.72;;;25.55;;
59193;SDS011;44967;48.598;15.650;2024-01-11T08:28:38;58.72;;;25.40;;
59193;SDS011;44967;48.598;15.650;2024-01-11T08:31:03;52.05;;;24.63;;
59193;SDS011;44967;48.598;15.650;2024-01-11T08:33:30;93.50;;;38.92;;
59193;SDS011;44967;48.598;15.650;2024-01-11T08:35:56;57.00;;;28.20;;
59193;SDS011;44967;48.598;15.650;2024-01-11T08:38:23;60.42;;;28.65;;
59193;SDS011;44967;48.598;15.650;2024-01-11T08:40:49;48.88;;;23.70;;
59193;SDS011;44967;48.598;15.650;2024-01-11T08:43:16;44.58;;;21.52;;
59193;SDS011;44967;48.598;15.650;2024-01-11T08:45:41;42.60;;;20.67;;
59193;SDS011;44967;48.598;15.650;2024-01-11T08:48:09;42.63;;;20.27;;
59193;SDS011;44967;48.598;15.650;2024-01-11T08:50:35;43.85;;;22.05;;
59193;SDS011;44967;48.598;15.650;2024-01-11T08:53:00;52.67;;;24.08;;
59193;SDS011;44967;48.598;15.650;2024-01-11T08:55:26;46.85;;;23.42;;
59193;SDS011;44967;48.598;15.650;2024-01-11T08:57:52;38.70;;;18.75;;
59193;SDS011;44967;48.598;15.650;2024-01-11T09:00:18;46.17;;;19.98;;
59193;SDS011;44967;48.598;15.650;2024-01-11T09:02:44;43.08;;;19.45;;
59193;SDS011;44967;48.598;15.650;2024-01-11T09:05:09;39.08;;;18.58;;
59193;SDS011;44967;48.598;15.650;2024-01-11T09:07:35;40.25;;;19.17;;
59193;SDS011;44967;48.598;15.650;2024-01-11T09:10:00;41.65;;;20.35;;
59193;SDS011;44967;48.598;15.650;2024-01-11T09:12:26;38.28;;;18.38;;
59193;SDS011;44967;48.598;15.650;2024-01-11T09:14:52;36.80;;;17.80;;
59193;SDS011;44967;48.598;15.650;2024-01-11T09:17:17;36.15;;;17.83;;
59193;SDS011;44967;48.598;15.650;2024-01-11T09:19:43;40.58;;;18.98;;
59193;SDS011;44967;48.598;15.650;2024-01-11T09:22:08;42.72;;;20.10;;
59193;SDS011;44967;48.598;15.650;2024-01-11T09:24:35;35.53;;;17.38;;
59193;SDS011;44967;48.598;15.650;2024-01-11T09:27:01;42.28;;;19.10;;
59193;SDS011;44967;48.598;15.650;2024-01-11T09:29:29;36.92;;;19.05;;
59193;SDS011;44967;48.598;15.650;2024-01-11T09:31:55;41.40;;;19.63;;
59193;SDS011;44967;48.598;15.650;2024-01-11T09:34:21;35.83;;;18.23;;
59193;SDS011;44967;48.598;15.650;2024-01-11T09:36:47;38.30;;;20.17;;
59193;SDS011;44967;48.598;15.650;2024-01-11T09:39:12;44.20;;;19.65;;
59193;SDS011;44967;48.598;15.650;2024-01-11T09:41:40;38.38;;;17.20;;
59193;SDS011;44967;48.598;15.650;2024-01-11T09:44:17;35.22;;;16.55;;
59193;SDS011;44967;48.598;15.650;2024-01-11T09:46:43;38.55;;;17.95;;
59193;SDS011;44967;48.598;15.650;2024-01-11T09:49:09;42.53;;;18.80;;
59193;SDS011;44967;48.598;15.650;2024-01-11T09:51:37;39.88;;;18.40;;
59193;SDS011;44967;48.598;15.650;2024-01-11T09:54:05;42.03;;;20.02;;
59193;SDS011;44967;48.598;15.650;2024-01-11T09:56:32;50.80;;;22.00;;
59193;SDS011;44967;48.598;15.650;2024-01-11T09:58:58;41.22;;;20.63;;
59193;SDS011;44967;48.598;15.650;2024-01-11T10:01:24;47.25;;;21.63;;
59193;SDS011;44967;48.598;15.650;2024-01-11T10:03:50;41.78;;;19.80;;
59193;SDS011;44967;48.598;15.650;2024-01-11T10:06:18;35.08;;;19.27;;
59193;SDS011;44967;48.598;15.650;2024-01-11T10:08:45;40.08;;;19.27;;
59193;SDS011;44967;48.598;15.650;2024-01-11T10:11:11;43.58;;;19.40;;
59193;SDS011;44967;48.598;15.650;2024-01-11T10:13:37;37.63;;;17.80;;
59193;SDS011;44967;48.598;15.650;2024-01-11T10:16:10;39.38;;;19.10;;
59193;SDS011;44967;48.598;15.650;2024-01-11T10:18:38;38.03;;;17.38;;
59193;SDS011;44967;48.598;15.650;2024-01-11T10:21:05;38.60;;;17.95;;
59193;SDS011;44967;48.598;15.650;2024-01-11T10:23:33;37.00;;;18.40;;
59193;SDS011;44967;48.598;15.650;2024-01-11T10:26:00;35.00;;;17.20;;
59193;SDS011;44967;48.598;15.650;2024-01-11T10:28:25;33.28;;;14.63;;
59193;SDS011;44967;48.598;15.650;2024-01-11T10:30:52;35.97;;;15.25;;
59193;SDS011;44967;48.598;15.650;2024-01-11T10:33:21;32.85;;;15.27;;
59193;SDS011;44967;48.598;15.650;2024-01-11T10:35:48;30.70;;;14.02;;
59193;SDS011;44967;48.598;15.650;2024-01-11T10:38:15;37.33;;;15.90;;
59193;SDS011;44967;48.598;15.650;2024-01-11T10:40:42;29.98;;;14.75;;
59193;SDS011;44967;48.598;15.650;2024-01-11T10:43:09;28.42;;;14.00;;
59193;SDS011;44967;48.598;15.650;2024-01-11T10:45:41;29.05;;;15.35;;
59193;SDS011;44967;48.598;15.650;2024-01-11T10:50:44;33.10;;;15.85;;
59193;SDS011;44967;48.598;15.650;2024-01-11T10:55:55;32.95;;;16.23;;
59193;SDS011;44967;48.598;15.650;2024-01-11T10:58:24;35.28;;;15.45;;
59193;SDS011;44967;48.598;15.650;2024-01-11T11:00:52;30.25;;;14.45;;
59193;SDS011;44967;48.598;15.650;2024-01-11T11:03:19;29.98;;;14.20;;
59193;SDS011;44967;48.598;15.650;2024-01-11T11:05:48;30.67;;;14.32;;
59193;SDS011;44967;48.598;15.650;2024-01-11T11:08:15;36.67;;;15.57;;
59193;SDS011;44967;48.598;15.650;2024-01-11T11:10:43;31.50;;;15.20;;
59193;SDS011;44967;48.598;15.650;2024-01-11T11:13:14;29.80;;;15.25;;
59193;SDS011;44967;48.598;15.650;2024-01-11T11:15:42;30.60;;;14.55;;
59193;SDS011;44967;48.598;15.650;2024-01-11T11:18:12;28.38;;;14.80;;
59193;SDS011;44967;48.598;15.650;2024-01-11T11:20:39;36.08;;;16.25;;
59193;SDS011;44967;48.598;15.650;2024-01-11T11:23:07;33.35;;;14.50;;
59193;SDS011;44967;48.598;15.650;2024-01-11T11:25:39;32.67;;;14.98;;
59193;SDS011;44967;48.598;15.650;2024-01-11T11:28:06;31.42;;;14.38;;
59193;SDS011;44967;48.598;15.650;2024-01-11T11:30:38;31.83;;;14.43;;
59193;SDS011;44967;48.598;15.650;2024-01-11T11:33:09;36.17;;;15.30;;
59193;SDS011;44967;48.598;15.650;2024-01-11T11:35:45;33.33;;;14.68;;
59193;SDS011;44967;48.598;15.650;2024-01-11T11:38:18;30.63;;;13.88;;
59193;SDS011;44967;48.598;15.650;2024-01-11T11:40:47;24.88;;;12.52;;
59193;SDS011;44967;48.598;15.650;2024-01-11T11:43:17;27.75;;;12.85;;
59193;SDS011;44967;48.598;15.650;2024-01-11T11:45:44;30.73;;;12.77;;
59193;SDS011;44967;48.598;15.650;2024-01-11T11:49:12;27.80;;;13.20;;
59193;SDS011;44967;48.598;15.650;2024-01-11T11:53:36;29.70;;;11.70;;
59193;SDS011;44967;48.598;15.650;2024-01-11T11:56:02;24.42;;;12.43;;
59193;SDS011;44967;48.598;15.650;2024-01-11T11:58:29;24.73;;;11.82;;
59193;SDS011;44967;48.598;15.650;2024-01-11T12:00:59;20.45;;;12.20;;
59193;SDS011;44967;48.598;15.650;2024-01-11T12:03:44;27.55;;;12.43;;
59193;SDS011;44967;48.598;15.650;2024-01-11T12:06:18;21.67;;;11.50;;
59193;SDS011;44967;48.598;15.650;2024-01-11T12:08:46;26.20;;;11.82;;
59193;SDS011;44967;48.598;15.650;2024-01-11T12:11:14;22.98;;;11.65;;
59193;SDS011;44967;48.598;15.650;2024-01-11T12:13:42;26.65;;;12.60;;
59193;SDS011;44967;48.598;15.650;2024-01-11T12:16:10;24.85;;;11.88;;
59193;SDS011;44967;48.598;15.650;2024-01-11T12:18:37;23.83;;;12.40;;
59193;SDS011;44967;48.598;15.650;2024-01-11T12:21:03;22.95;;;12.20;;
59193;SDS011;44967;48.598;15.650;2024-01-11T12:23:29;25.23;;;11.57;;
59193;SDS011;44967;48.598;15.650;2024-01-11T12:25:56;24.90;;;12.32;;
59193;SDS011;44967;48.598;15.650;2024-01-11T12:28:23;24.63;;;12.23;;
59193;SDS011;44967;48.598;15.650;2024-01-11T12:30:49;24.70;;;12.80;;
59193;SDS011;44967;48.598;15.650;2024-01-11T12:33:15;26.20;;;13.23;;
59193;SDS011;44967;48.598;15.650;2024-01-11T12:35:42;25.23;;;12.95;;
59193;SDS011;44967;48.598;15.650;2024-01-11T12:38:08;24.80;;;12.07;;
59193;SDS011;44967;48.598;15.650;2024-01-11T12:40:37;24.85;;;12.30;;
59193;SDS011;44967;48.598;15.650;2024-01-11T12:43:04;23.48;;;12.82;;
59193;SDS011;44967;48.598;15.650;2024-01-11T12:45:31;31.67;;;13.25;;
59193;SDS011;44967;48.598;15.650;2024-01-11T12:48:01;24.80;;;12.27;;
59193;SDS011;44967;48.598;15.650;2024-01-11T12:50:29;25.85;;;13.30;;
59193;SDS011;44967;48.598;15.650;2024-01-11T12:53:13;23.35;;;11.80;;
59193;SDS011;44967;48.598;15.650;2024-01-11T12:58:12;26.73;;;11.63;;
59193;SDS011;44967;48.598;15.650;2024-01-11T13:00:38;23.95;;;11.98;;
59193;SDS011;44967;48.598;15.650;2024-01-11T13:03:04;24.40;;;12.57;;
59193;SDS011;44967;48.598;15.650;2024-01-11T13:05:30;29.60;;;12.90;;
59193;SDS011;44967;48.598;15.650;2024-01-11T13:08:07;24.00;;;13.65;;
59193;SDS011;44967;48.598;15.650;2024-01-11T13:10:34;29.17;;;14.20;;
59193;SDS011;44967;48.598;15.650;2024-01-11T13:13:01;26.98;;;12.85;;
59193;SDS011;44967;48.598;15.650;2024-01-11T13:15:28;27.10;;;13.82;;
59193;SDS011;44967;48.598;15.650;2024-01-11T13:18:00;32.88;;;14.95;;
59193;SDS011;44967;48.598;15.650;2024-01-11T13:20:29;25.40;;;14.35;;
59193;SDS011;44967;48.598;15.650;2024-01-11T13:23:17;25.58;;;12.85;;
59193;SDS011;44967;48.598;15.650;2024-01-11T13:25:48;22.50;;;13.13;;
59193;SDS011;44967;48.598;15.650;2024-01-11T13:28:17;25.50;;;13.23;;
59193;SDS011;44967;48.598;15.650;2024-01-11T13:30:44;27.95;;;12.98;;
59193;SDS011;44967;48.598;15.650;2024-01-11T13:33:11;26.60;;;13.45;;
59193;SDS011;44967;48.598;15.650;2024-01-11T13:35:39;23.50;;;11.70;;
59193;SDS011;44967;48.598;15.650;2024-01-11T13:38:06;25.20;;;12.32;;
59193;SDS011;44967;48.598;15.650;2024-01-11T13:40:33;23.98;;;12.73;;
59193;SDS011;44967;48.598;15.650;2024-01-11T13:42:58;26.02;;;12.30;;
59193;SDS011;44967;48.598;15.650;2024-01-11T13:45:25;22.50;;;13.13;;
59193;SDS011;44967;48.598;15.650;2024-01-11T13:47:51;24.75;;;13.25;;
59193;SDS011;44967;48.598;15.650;2024-01-11T13:50:21;27.60;;;12.88;;
59193;SDS011;44967;48.598;15.650;2024-01-11T13:52:49;26.08;;;12.45;;
59193;SDS011;44967;48.598;15.650;2024-01-11T13:55:15;24.67;;;13.90;;
59193;SDS011;44967;48.598;15.650;2024-01-11T13:57:41;33.95;;;13.57;;
59193;SDS011;44967;48.598;15.650;2024-01-11T14:00:07;23.48;;;12.35;;
59193;SDS011;44967;48.598;15.650;2024-01-11T14:02:36;24.55;;;12.32;;
59193;SDS011;44967;48.598;15.650;2024-01-11T14:05:03;27.02;;;12.32;;
59193;SDS011;44967;48.598;15.650;2024-01-11T14:07:31;24.95;;;14.02;;
59193;SDS011;44967;48.598;15.650;2024-01-11T14:09:56;23.98;;;11.77;;
59193;SDS011;44967;48.598;15.650;2024-01-11T14:12:23;27.05;;;13.60;;
59193;SDS011;44967;48.598;15.650;2024-01-11T14:14:48;26.98;;;13.52;;
59193;SDS011;44967;48.598;15.650;2024-01-11T14:17:14;29.05;;;13.52;;